sensor_id;sensor_type;location;lat;lon;timestamp;temperature;humidity
27900;DHT22;15243;50.726;7.080;2022-07-24T00:01:37;17.30;99.90
27900;DHT22;15243;50.726;7.080;2022-07-24T00:04:05;17.30;99.90
27900;DHT22;15243;50.726;7.080;2022-07-24T00:06:32;17.30;99.90
27900;DHT22;15243;50.726;7.080;2022-07-24T00:08:59;17.30;99.90
27900;DHT22;15243;50.726;7.080;2022-07-24T00:11:27;17.30;99.90
27900;DHT22;15243;50.726;7.080;2022-07-24T00:13:54;17.20;99.90
27900;DHT22;15243;50.726;7.080;2022-07-24T00:16:21;17.20;99.90
27900;DHT22;15243;50.726;7.080;2022-07-24T00:18:49;17.10;99.90
27900;DHT22;15243;50.726;7.080;2022-07-24T00:21:16;17.10;99.90
27900;DHT22;15243;50.726;7.080;2022-07-24T00:23:43;17.10;99.90
27900;DHT22;15243;50.726;7.080;2022-07-24T00:26:11;17.20;99.90
27900;DHT22;15243;50.726;7.080;2022-07-24T00:28:38;17.20;99.90
27900;DHT22;15243;50.726;7.080;2022-07-24T00:31:05;17.10;99.90
27900;DHT22;15243;50.726;7.080;2022-07-24T00:33:32;17.10;99.90
27900;DHT22;15243;50.726;7.080;2022-07-24T00:35:59;17.00;99.90
27900;DHT22;15243;50.726;7.080;2022-07-24T00:38:26;16.90;99.90
27900;DHT22;15243;50.726;7.080;2022-07-24T00:40:53;16.90;99.90
27900;DHT22;15243;50.726;7.080;2022-07-24T00:43:20;16.90;99.90
27900;DHT22;15243;50.726;7.080;2022-07-24T00:45:47;17.00;99.90
27900;DHT22;15243;50.726;7.080;2022-07-24T00:48:15;16.90;99.90
27900;DHT22;15243;50.726;7.080;2022-07-24T00:50:43;16.80;99.90
27900;DHT22;15243;50.726;7.080;2022-07-24T00:53:10;16.80;99.90
27900;DHT22;15243;50.726;7.080;2022-07-24T00:55:38;16.80;99.90
27900;DHT22;15243;50.726;7.080;2022-07-24T00:58:05;16.80;99.90
27900;DHT22;15243;50.726;7.080;2022-07-24T01:00:32;16.70;99.90
27900;DHT22;15243;50.726;7.080;2022-07-24T01:03:00;16.60;99.90
27900;DHT22;15243;50.726;7.080;2022-07-24T01:05:27;16.60;99.90
27900;DHT22;15243;50.726;7.080;2022-07-24T01:07:54;16.60;99.90
27900;DHT22;15243;50.726;7.080;2022-07-24T01:10:20;16.60;99.90
27900;DHT22;15243;50.726;7.080;2022-07-24T01:12:48;16.50;99.90
27900;DHT22;15243;50.726;7.080;2022-07-24T01:15:15;16.50;99.90
27900;DHT22;15243;50.726;7.080;2022-07-24T01:17:42;16.40;99.90
27900;DHT22;15243;50.726;7.080;2022-07-24T01:20:10;16.50;99.90
27900;DHT22;15243;50.726;7.080;2022-07-24T01:22:37;16.50;99.90
27900;DHT22;15243;50.726;7.080;2022-07-24T01:25:05;16.30;99.90
27900;DHT22;15243;50.726;7.080;2022-07-24T01:27:32;16.30;99.90
27900;DHT22;15243;50.726;7.080;2022-07-24T01:29:59;16.40;99.90
27900;DHT22;15243;50.726;7.080;2022-07-24T01:32:26;16.40;99.90
27900;DHT22;15243;50.726;7.080;2022-07-24T01:34:53;16.30;99.90
27900;DHT22;15243;50.726;7.080;2022-07-24T01:37:20;16.30;99.90
27900;DHT22;15243;50.726;7.080;2022-07-24T01:39:47;16.30;99.90
27900;DHT22;15243;50.726;7.080;2022-07-24T01:42:14;16.30;99.90
27900;DHT22;15243;50.726;7.080;2022-07-24T01:44:41;16.30;99.90
27900;DHT22;15243;50.726;7.080;2022-07-24T01:47:08;16.30;99.90
27900;DHT22;15243;50.726;7.080;2022-07-24T01:49:36;16.20;99.90
27900;DHT22;15243;50.726;7.080;2022-07-24T01:52:03;16.20;99.90
27900;DHT22;15243;50.726;7.080;2022-07-24T01:54:30;16.10;99.90
27900;DHT22;15243;50.726;7.080;2022-07-24T01:56:57;16.10;99.90
27900;DHT22;15243;50.726;7.080;2022-07-24T01:59:24;16.00;99.90
27900;DHT22;15243;50.726;7.080;2022-07-24T02:01:52;16.00;99.90
27900;DHT22;15243;50.726;7.080;2022-07-24T02:04:20;16.00;99.90
27900;DHT22;15243;50.726;7.080;2022-07-24T02:06:47;15.80;99.90
27900;DHT22;15243;50.726;7.080;2022-07-24T02:09:14;15.70;99.90
27900;DHT22;15243;50.726;7.080;2022-07-24T02:11:41;15.80;99.90
27900;DHT22;15243;50.726;7.080;2022-07-24T02:14:08;15.90;99.90
27900;DHT22;15243;50.726;7.080;2022-07-24T02:16:35;15.90;99.90
27900;DHT22;15243;50.726;7.080;2022-07-24T02:19:02;15.90;99.90
27900;DHT22;15243;50.726;7.080;2022-07-24T02:21:30;15.90;99.90
27900;DHT22;15243;50.726;7.080;2022-07-24T02:23:57;15.90;99.90
27900;DHT22;15243;50.726;7.080;2022-07-24T02:26:24;15.80;99.90
27900;DHT22;15243;50.726;7.080;2022-07-24T02:28:51;15.80;99.90
27900;DHT22;15243;50.726;7.080;2022-07-24T02:31:18;15.80;99.90
27900;DHT22;15243;50.726;7.080;2022-07-24T02:33:45;15.80;99.90
27900;DHT22;15243;50.726;7.080;2022-07-24T02:36:12;15.80;99.90
27900;DHT22;15243;50.726;7.080;2022-07-24T02:38:39;15.80;99.90
27900;DHT22;15243;50.726;7.080;2022-07-24T02:41:06;15.80;99.90
27900;DHT22;15243;50.726;7.080;2022-07-24T02:43:33;15.80;99.90
27900;DHT22;15243;50.726;7.080;2022-07-24T02:46:00;15.80;99.90
27900;DHT22;15243;50.726;7.080;2022-07-24T02:48:27;15.60;99.90
27900;DHT22;15243;50.726;7.080;2022-07-24T02:50:54;15.60;99.90
27900;DHT22;15243;50.726;7.080;2022-07-24T02:53:21;15.60;99.90
27900;DHT22;15243;50.726;7.080;2022-07-24T02:55:48;15.60;99.90
27900;DHT22;15243;50.726;7.080;2022-07-24T02:58:15;15.60;99.90
27900;DHT22;15243;50.726;7.080;2022-07-24T03:00:42;15.60;99.90
27900;DHT22;15243;50.726;7.080;2022-07-24T03:03:09;15.60;99.90
27900;DHT22;15243;50.726;7.080;2022-07-24T03:05:36;15.60;99.90
27900;DHT22;15243;50.726;7.080;2022-07-24T03:08:03;15.60;99.90
27900;DHT22;15243;50.726;7.080;2022-07-24T03:10:30;15.50;99.90
27900;DHT22;15243;50.726;7.080;2022-07-24T03:12:57;15.50;99.90
27900;DHT22;15243;50.726;7.080;2022-07-24T03:15:24;15.50;99.90
27900;DHT22;15243;50.726;7.080;2022-07-24T03:17:54;15.50;99.90
27900;DHT22;15243;50.726;7.080;2022-07-24T03:20:25;15.40;99.90
27900;DHT22;15243;50.726;7.080;2022-07-24T03:22:53;15.40;99.90
27900;DHT22;15243;50.726;7.080;2022-07-24T03:25:21;15.40;99.90
27900;DHT22;15243;50.726;7.080;2022-07-24T03:27:48;15.50;99.90
27900;DHT22;15243;50.726;7.080;2022-07-24T03:30:16;15.40;99.90
27900;DHT22;15243;50.726;7.080;2022-07-24T03:32:44;15.50;99.90
27900;DHT22;15243;50.726;7.080;2022-07-24T03:35:11;15.40;99.90
27900;DHT22;15243;50.726;7.080;2022-07-24T03:37:38;15.40;99.90
27900;DHT22;15243;50.726;7.080;2022-07-24T03:40:05;15.40;99.90
27900;DHT22;15243;50.726;7.080;2022-07-24T03:42:33;15.40;99.90
27900;DHT22;15243;50.726;7.080;2022-07-24T03:45:00;15.40;99.90
27900;DHT22;15243;50.726;7.080;2022-07-24T03:47:27;15.50;99.90
27900;DHT22;15243;50.726;7.080;2022-07-24T03:49:54;15.50;99.90
27900;DHT22;15243;50.726;7.080;2022-07-24T03:52:21;15.40;99.90
27900;DHT22;15243;50.726;7.080;2022-07-24T03:54:50;15.50;99.90
27900;DHT22;15243;50.726;7.080;2022-07-24T03:57:17;15.50;99.90
27900;DHT22;15243;50.726;7.080;2022-07-24T03:59:44;15.40;99.90
27900;DHT22;15243;50.726;7.080;2022-07-24T04:02:11;15.40;99.90
27900;DHT22;15243;50.726;7.080;2022-07-24T04:04:38;15.40;99.90
27900;DHT22;15243;50.726;7.080;2022-07-24T04:07:06;15.40;99.90
27900;DHT22;15243;50.726;7.080;2022-07-24T04:09:33;15.40;99.90
27900;DHT22;15243;50.726;7.080;2022-07-24T04:12:00;15.40;99.90
27900;DHT22;15243;50.726;7.080;2022-07-24T04:14:27;15.40;99.90
27900;DHT22;15243;50.726;7.080;2022-07-24T04:16:54;15.50;99.90
27900;DHT22;15243;50.726;7.080;2022-07-24T04:19:21;15.50;99.90
27900;DHT22;15243;50.726;7.080;2022-07-24T04:21:48;15.50;99.90
27900;DHT22;15243;50.726;7.080;2022-07-24T04:24:15;15.50;99.90
27900;DHT22;15243;50.726;7.080;2022-07-24T04:26:42;15.60;99.90
27900;DHT22;15243;50.726;7.080;2022-07-24T04:29:10;15.60;99.90
27900;DHT22;15243;50.726;7.080;2022-07-24T04:31:37;15.70;99.90
27900;DHT22;15243;50.726;7.080;2022-07-24T04:34:04;15.70;99.90
27900;DHT22;15243;50.726;7.080;2022-07-24T04:36:31;15.80;99.90
27900;DHT22;15243;50.726;7.080;2022-07-24T04:38:58;15.80;99.90
27900;DHT22;15243;50.726;7.080;2022-07-24T04:41:33;15.90;99.90
27900;DHT22;15243;50.726;7.080;2022-07-24T04:44:00;16.00;99.90
27900;DHT22;15243;50.726;7.080;2022-07-24T04:46:28;16.10;99.90
27900;DHT22;15243;50.726;7.080;2022-07-24T04:48:56;16.10;99.90
27900;DHT22;15243;50.726;7.080;2022-07-24T04:51:23;16.20;99.90
27900;DHT22;15243;50.726;7.080;2022-07-24T04:53:50;16.30;99.90
27900;DHT22;15243;50.726;7.080;2022-07-24T04:56:20;16.40;99.90
27900;DHT22;15243;50.726;7.080;2022-07-24T04:58:48;16.50;99.90
27900;DHT22;15243;50.726;7.080;2022-07-24T05:01:15;16.50;99.90
27900;DHT22;15243;50.726;7.080;2022-07-24T05:03:42;16.60;99.90
27900;DHT22;15243;50.726;7.080;2022-07-24T05:06:09;16.70;99.90
27900;DHT22;15243;50.726;7.080;2022-07-24T05:08:36;16.80;99.90
27900;DHT22;15243;50.726;7.080;2022-07-24T05:11:03;16.80;99.90
27900;DHT22;15243;50.726;7.080;2022-07-24T05:13:30;16.90;99.90
27900;DHT22;15243;50.726;7.080;2022-07-24T05:15:57;17.00;99.90
27900;DHT22;15243;50.726;7.080;2022-07-24T05:18:24;16.90;99.90
27900;DHT22;15243;50.726;7.080;2022-07-24T05:20:51;17.00;99.90
27900;DHT22;15243;50.726;7.080;2022-07-24T05:23:18;17.00;99.90
27900;DHT22;15243;50.726;7.080;2022-07-24T05:25:45;17.10;99.90
27900;DHT22;15243;50.726;7.080;2022-07-24T05:28:15;17.10;99.90
27900;DHT22;15243;50.726;7.080;2022-07-24T05:30:42;17.20;99.90
27900;DHT22;15243;50.726;7.080;2022-07-24T05:33:09;17.30;99.90
27900;DHT22;15243;50.726;7.080;2022-07-24T05:35:36;17.40;99.90
27900;DHT22;15243;50.726;7.080;2022-07-24T05:38:05;17.50;99.90
27900;DHT22;15243;50.726;7.080;2022-07-24T05:40:32;17.60;99.90
27900;DHT22;15243;50.726;7.080;2022-07-24T05:42:59;18.00;99.90
27900;DHT22;15243;50.726;7.080;2022-07-24T05:45:26;18.00;99.90
27900;DHT22;15243;50.726;7.080;2022-07-24T05:47:53;18.00;99.90
27900;DHT22;15243;50.726;7.080;2022-07-24T05:50:20;18.00;99.90
27900;DHT22;15243;50.726;7.080;2022-07-24T05:52:47;18.10;99.90
27900;DHT22;15243;50.726;7.080;2022-07-24T05:55:14;18.20;99.90
27900;DHT22;15243;50.726;7.080;2022-07-24T05:57:43;18.20;99.90
27900;DHT22;15243;50.726;7.080;2022-07-24T06:00:10;18.30;99.90
27900;DHT22;15243;50.726;7.080;2022-07-24T06:02:43;18.50;99.90
27900;DHT22;15243;50.726;7.080;2022-07-24T06:05:12;18.70;99.90
27900;DHT22;15243;50.726;7.080;2022-07-24T06:07:40;18.80;99.90
27900;DHT22;15243;50.726;7.080;2022-07-24T06:10:08;18.80;99.90
27900;DHT22;15243;50.726;7.080;2022-07-24T06:12:40;18.80;99.90
27900;DHT22;15243;50.726;7.080;2022-07-24T06:15:08;18.80;99.90
27900;DHT22;15243;50.726;7.080;2022-07-24T06:17:35;19.00;99.90
27900;DHT22;15243;50.726;7.080;2022-07-24T06:20:03;19.10;99.90
27900;DHT22;15243;50.726;7.080;2022-07-24T06:22:30;19.10;99.90
27900;DHT22;15243;50.726;7.080;2022-07-24T06:24:57;19.30;99.90
27900;DHT22;15243;50.726;7.080;2022-07-24T06:27:24;19.50;99.90
27900;DHT22;15243;50.726;7.080;2022-07-24T06:29:51;19.60;99.90
27900;DHT22;15243;50.726;7.080;2022-07-24T06:32:18;19.90;99.90
27900;DHT22;15243;50.726;7.080;2022-07-24T06:34:45;19.90;99.90
27900;DHT22;15243;50.726;7.080;2022-07-24T06:37:12;20.00;99.90
27900;DHT22;15243;50.726;7.080;2022-07-24T06:39:38;20.00;99.90
27900;DHT22;15243;50.726;7.080;2022-07-24T06:42:06;20.10;99.90
27900;DHT22;15243;50.726;7.080;2022-07-24T06:44:33;20.10;99.90
27900;DHT22;15243;50.726;7.080;2022-07-24T06:47:02;20.30;99.90
27900;DHT22;15243;50.726;7.080;2022-07-24T06:49:29;20.40;99.90
27900;DHT22;15243;50.726;7.080;2022-07-24T06:51:56;20.60;99.90
27900;DHT22;15243;50.726;7.080;2022-07-24T06:54:23;20.70;99.90
27900;DHT22;15243;50.726;7.080;2022-07-24T06:56:50;20.90;99.90
27900;DHT22;15243;50.726;7.080;2022-07-24T06:59:18;21.10;99.90
27900;DHT22;15243;50.726;7.080;2022-07-24T07:01:45;21.20;99.90
27900;DHT22;15243;50.726;7.080;2022-07-24T07:04:12;21.20;99.90
27900;DHT22;15243;50.726;7.080;2022-07-24T07:06:39;21.50;99.90
27900;DHT22;15243;50.726;7.080;2022-07-24T07:09:11;21.70;99.90
27900;DHT22;15243;50.726;7.080;2022-07-24T07:11:38;21.70;99.90
27900;DHT22;15243;50.726;7.080;2022-07-24T07:14:05;21.80;99.90
27900;DHT22;15243;50.726;7.080;2022-07-24T07:16:32;22.00;99.90
27900;DHT22;15243;50.726;7.080;2022-07-24T07:18:59;22.10;99.90
27900;DHT22;15243;50.726;7.080;2022-07-24T07:21:26;22.20;99.90
27900;DHT22;15243;50.726;7.080;2022-07-24T07:23:53;22.30;99.90
27900;DHT22;15243;50.726;7.080;2022-07-24T07:26:21;22.60;99.90
27900;DHT22;15243;50.726;7.080;2022-07-24T07:28:47;22.80;99.90
27900;DHT22;15243;50.726;7.080;2022-07-24T07:31:15;22.80;99.90
27900;DHT22;15243;50.726;7.080;2022-07-24T07:33:42;22.90;99.90
27900;DHT22;15243;50.726;7.080;2022-07-24T07:36:09;22.90;99.90
27900;DHT22;15243;50.726;7.080;2022-07-24T07:38:36;23.00;99.90
27900;DHT22;15243;50.726;7.080;2022-07-24T07:41:05;22.90;99.90
27900;DHT22;15243;50.726;7.080;2022-07-24T07:43:36;23.10;99.90
27900;DHT22;15243;50.726;7.080;2022-07-24T07:46:04;23.20;99.90
27900;DHT22;15243;50.726;7.080;2022-07-24T07:48:31;23.20;99.90
27900;DHT22;15243;50.726;7.080;2022-07-24T07:50:59;23.40;99.90
27900;DHT22;15243;50.726;7.080;2022-07-24T07:53:26;23.60;99.90
27900;DHT22;15243;50.726;7.080;2022-07-24T07:55:53;23.50;99.90
27900;DHT22;15243;50.726;7.080;2022-07-24T07:58:20;23.40;99.90
27900;DHT22;15243;50.726;7.080;2022-07-24T08:00:49;23.40;99.90
27900;DHT22;15243;50.726;7.080;2022-07-24T08:03:16;23.80;99.90
27900;DHT22;15243;50.726;7.080;2022-07-24T08:05:48;24.00;99.90
27900;DHT22;15243;50.726;7.080;2022-07-24T08:08:22;24.00;99.90
27900;DHT22;15243;50.726;7.080;2022-07-24T08:10:50;23.90;99.90
27900;DHT22;15243;50.726;7.080;2022-07-24T08:13:17;24.00;99.90
27900;DHT22;15243;50.726;7.080;2022-07-24T08:15:46;24.30;99.90
27900;DHT22;15243;50.726;7.080;2022-07-24T08:18:13;24.40;99.90
27900;DHT22;15243;50.726;7.080;2022-07-24T08:20:40;24.40;99.90
27900;DHT22;15243;50.726;7.080;2022-07-24T08:23:07;24.70;99.90
27900;DHT22;15243;50.726;7.080;2022-07-24T08:25:34;24.80;99.90
27900;DHT22;15243;50.726;7.080;2022-07-24T08:28:01;25.00;99.90
27900;DHT22;15243;50.726;7.080;2022-07-24T08:30:28;24.80;99.90
27900;DHT22;15243;50.726;7.080;2022-07-24T08:32:55;25.00;99.90
27900;DHT22;15243;50.726;7.080;2022-07-24T08:35:22;25.20;99.90
27900;DHT22;15243;50.726;7.080;2022-07-24T08:37:57;25.20;99.90
27900;DHT22;15243;50.726;7.080;2022-07-24T08:40:24;25.30;99.90
27900;DHT22;15243;50.726;7.080;2022-07-24T08:42:51;25.60;99.90
27900;DHT22;15243;50.726;7.080;2022-07-24T08:45:18;25.80;99.90
27900;DHT22;15243;50.726;7.080;2022-07-24T08:47:46;25.70;99.90
27900;DHT22;15243;50.726;7.080;2022-07-24T08:50:13;25.70;99.90
27900;DHT22;15243;50.726;7.080;2022-07-24T08:52:39;26.00;99.90
27900;DHT22;15243;50.726;7.080;2022-07-24T08:55:11;26.10;99.90
27900;DHT22;15243;50.726;7.080;2022-07-24T08:57:38;26.20;99.90
27900;DHT22;15243;50.726;7.080;2022-07-24T09:00:05;26.30;99.90
27900;DHT22;15243;50.726;7.080;2022-07-24T09:02:37;26.20;99.90
27900;DHT22;15243;50.726;7.080;2022-07-24T09:05:04;26.40;99.90
27900;DHT22;15243;50.726;7.080;2022-07-24T09:07:31;26.40;99.90
27900;DHT22;15243;50.726;7.080;2022-07-24T09:10:01;26.50;99.90
27900;DHT22;15243;50.726;7.080;2022-07-24T09:12:47;26.30;99.90
27900;DHT22;15243;50.726;7.080;2022-07-24T09:15:22;26.20;99.90
27900;DHT22;15243;50.726;7.080;2022-07-24T09:17:55;26.30;99.90
27900;DHT22;15243;50.726;7.080;2022-07-24T09:20:24;26.50;99.90
27900;DHT22;15243;50.726;7.080;2022-07-24T09:22:51;26.50;99.90
27900;DHT22;15243;50.726;7.080;2022-07-24T09:25:26;26.70;99.90
27900;DHT22;15243;50.726;7.080;2022-07-24T09:27:54;27.20;99.90
27900;DHT22;15243;50.726;7.080;2022-07-24T09:30:31;27.20;99.90
27900;DHT22;15243;50.726;7.080;2022-07-24T09:33:04;27.30;99.90
27900;DHT22;15243;50.726;7.080;2022-07-24T09:38:06;27.30;99.90
27900;DHT22;15243;50.726;7.080;2022-07-24T09:40:34;27.50;99.90
27900;DHT22;15243;50.726;7.080;2022-07-24T09:43:21;27.70;99.90
27900;DHT22;15243;50.726;7.080;2022-07-24T09:45:59;27.80;99.90
27900;DHT22;15243;50.726;7.080;2022-07-24T09:48:29;27.60;99.90
27900;DHT22;15243;50.726;7.080;2022-07-24T09:51:00;27.60;99.90
27900;DHT22;15243;50.726;7.080;2022-07-24T09:53:30;27.90;99.90
27900;DHT22;15243;50.726;7.080;2022-07-24T09:56:09;28.10;99.90
27900;DHT22;15243;50.726;7.080;2022-07-24T09:58:48;28.00;99.90
27900;DHT22;15243;50.726;7.080;2022-07-24T10:01:17;28.10;99.90
27900;DHT22;15243;50.726;7.080;2022-07-24T10:03:46;28.00;99.90
27900;DHT22;15243;50.726;7.080;2022-07-24T10:06:18;28.10;99.90
27900;DHT22;15243;50.726;7.080;2022-07-24T10:08:47;28.30;99.90
27900;DHT22;15243;50.726;7.080;2022-07-24T10:11:15;28.30;99.90
27900;DHT22;15243;50.726;7.080;2022-07-24T10:13:43;28.60;99.90
27900;DHT22;15243;50.726;7.080;2022-07-24T10:16:24;28.10;99.90
27900;DHT22;15243;50.726;7.080;2022-07-24T10:18:53;27.70;99.90
27900;DHT22;15243;50.726;7.080;2022-07-24T10:21:37;27.70;99.90
27900;DHT22;15243;50.726;7.080;2022-07-24T10:26:46;28.00;99.90
27900;DHT22;15243;50.726;7.080;2022-07-24T10:29:21;28.50;99.90
27900;DHT22;15243;50.726;7.080;2022-07-24T10:31:51;28.80;99.90
27900;DHT22;15243;50.726;7.080;2022-07-24T10:34:49;28.80;99.90
27900;DHT22;15243;50.726;7.080;2022-07-24T10:43:09;29.10;99.90
27900;DHT22;15243;50.726;7.080;2022-07-24T10:45:40;29.20;99.90
27900;DHT22;15243;50.726;7.080;2022-07-24T10:48:29;29.20;99.90
27900;DHT22;15243;50.726;7.080;2022-07-24T10:53:26;28.20;99.90
27900;DHT22;15243;50.726;7.080;2022-07-24T10:55:54;28.30;99.90
27900;DHT22;15243;50.726;7.080;2022-07-24T10:58:53;28.50;99.90
27900;DHT22;15243;50.726;7.080;2022-07-24T11:01:46;28.70;99.90
27900;DHT22;15243;50.726;7.080;2022-07-24T11:07:12;28.80;99.90
27900;DHT22;15243;50.726;7.080;2022-07-24T11:10:08;29.20;99.90
27900;DHT22;15243;50.726;7.080;2022-07-24T11:12:42;29.50;99.90
27900;DHT22;15243;50.726;7.080;2022-07-24T11:15:13;29.50;99.90
27900;DHT22;15243;50.726;7.080;2022-07-24T11:18:13;29.50;99.90
27900;DHT22;15243;50.726;7.080;2022-07-24T11:20:41;29.50;99.90
27900;DHT22;15243;50.726;7.080;2022-07-24T11:23:26;29.60;99.90
27900;DHT22;15243;50.726;7.080;2022-07-24T11:26:55;29.90;99.90
27900;DHT22;15243;50.726;7.080;2022-07-24T11:29:21;30.20;99.90
27900;DHT22;15243;50.726;7.080;2022-07-24T11:32:11;30.20;99.90
27900;DHT22;15243;50.726;7.080;2022-07-24T11:34:46;30.10;99.90
27900;DHT22;15243;50.726;7.080;2022-07-24T11:37:13;29.60;99.60
27900;DHT22;15243;50.726;7.080;2022-07-24T11:39:42;29.60;99.90
27900;DHT22;15243;50.726;7.080;2022-07-24T11:42:12;29.80;99.20
27900;DHT22;15243;50.726;7.080;2022-07-24T11:44:49;29.70;99.90
27900;DHT22;15243;50.726;7.080;2022-07-24T11:47:22;30.00;99.90
27900;DHT22;15243;50.726;7.080;2022-07-24T11:49:58;30.40;99.90
27900;DHT22;15243;50.726;7.080;2022-07-24T11:52:33;30.10;97.90
27900;DHT22;15243;50.726;7.080;2022-07-24T11:57:37;29.70;98.80
27900;DHT22;15243;50.726;7.080;2022-07-24T12:00:25;30.20;98.70
27900;DHT22;15243;50.726;7.080;2022-07-24T12:02:59;30.40;96.80
27900;DHT22;15243;50.726;7.080;2022-07-24T12:05:38;30.40;98.30
27900;DHT22;15243;50.726;7.080;2022-07-24T12:08:17;30.30;97.70
27900;DHT22;15243;50.726;7.080;2022-07-24T12:10:45;30.20;98.10
27900;DHT22;15243;50.726;7.080;2022-07-24T12:13:16;30.70;97.50
27900;DHT22;15243;50.726;7.080;2022-07-24T12:15:44;30.70;95.70
27900;DHT22;15243;50.726;7.080;2022-07-24T12:18:11;30.60;95.90
27900;DHT22;15243;50.726;7.080;2022-07-24T12:20:40;30.90;96.90
27900;DHT22;15243;50.726;7.080;2022-07-24T12:23:16;31.20;97.20
27900;DHT22;15243;50.726;7.080;2022-07-24T12:25:46;31.10;93.80
27900;DHT22;15243;50.726;7.080;2022-07-24T12:28:18;31.50;94.60
27900;DHT22;15243;50.726;7.080;2022-07-24T12:30:53;31.40;93.80
27900;DHT22;15243;50.726;7.080;2022-07-24T12:33:23;31.60;93.80
27900;DHT22;15243;50.726;7.080;2022-07-24T12:36:07;31.80;93.20
27900;DHT22;15243;50.726;7.080;2022-07-24T12:38:41;31.00;92.00
27900;DHT22;15243;50.726;7.080;2022-07-24T12:41:14;30.90;92.50
27900;DHT22;15243;50.726;7.080;2022-07-24T12:46:44;31.20;91.20
27900;DHT22;15243;50.726;7.080;2022-07-24T12:49:18;31.40;91.70
27900;DHT22;15243;50.726;7.080;2022-07-24T12:51:59;31.50;90.50
27900;DHT22;15243;50.726;7.080;2022-07-24T12:54:31;31.60;91.60
27900;DHT22;15243;50.726;7.080;2022-07-24T12:57:00;31.00;92.20
27900;DHT22;15243;50.726;7.080;2022-07-24T12:59:35;31.40;92.10
27900;DHT22;15243;50.726;7.080;2022-07-24T13:04:45;31.90;89.60
27900;DHT22;15243;50.726;7.080;2022-07-24T13:07:14;32.30;91.50
27900;DHT22;15243;50.726;7.080;2022-07-24T13:09:41;32.40;89.90
27900;DHT22;15243;50.726;7.080;2022-07-24T13:12:10;32.70;85.60
27900;DHT22;15243;50.726;7.080;2022-07-24T13:14:37;32.50;85.20
27900;DHT22;15243;50.726;7.080;2022-07-24T13:17:07;32.30;85.00
27900;DHT22;15243;50.726;7.080;2022-07-24T13:19:42;32.40;84.90
27900;DHT22;15243;50.726;7.080;2022-07-24T13:22:10;32.50;82.60
27900;DHT22;15243;50.726;7.080;2022-07-24T13:24:38;33.10;84.30
27900;DHT22;15243;50.726;7.080;2022-07-24T13:27:06;33.30;85.30
27900;DHT22;15243;50.726;7.080;2022-07-24T13:29:35;33.20;82.00
27900;DHT22;15243;50.726;7.080;2022-07-24T13:32:03;33.10;81.20
27900;DHT22;15243;50.726;7.080;2022-07-24T13:34:31;33.40;80.40
27900;DHT22;15243;50.726;7.080;2022-07-24T13:36:58;33.80;81.10
27900;DHT22;15243;50.726;7.080;2022-07-24T13:39:26;34.30;83.30
27900;DHT22;15243;50.726;7.080;2022-07-24T13:41:53;34.30;80.40
27900;DHT22;15243;50.726;7.080;2022-07-24T13:44:20;33.70;78.60
27900;DHT22;15243;50.726;7.080;2022-07-24T13:46:47;33.00;76.00
27900;DHT22;15243;50.726;7.080;2022-07-24T13:49:16;32.30;76.30
27900;DHT22;15243;50.726;7.080;2022-07-24T13:51:43;32.00;81.20
27900;DHT22;15243;50.726;7.080;2022-07-24T13:54:10;32.40;77.30
27900;DHT22;15243;50.726;7.080;2022-07-24T13:56:37;32.40;74.10
27900;DHT22;15243;50.726;7.080;2022-07-24T13:59:04;32.30;76.10
27900;DHT22;15243;50.726;7.080;2022-07-24T14:01:32;32.70;77.50
27900;DHT22;15243;50.726;7.080;2022-07-24T14:04:05;33.10;75.90
27900;DHT22;15243;50.726;7.080;2022-07-24T14:06:54;33.20;80.40
27900;DHT22;15243;50.726;7.080;2022-07-24T14:09:22;32.60;73.20
27900;DHT22;15243;50.726;7.080;2022-07-24T14:11:49;32.80;77.00
27900;DHT22;15243;50.726;7.080;2022-07-24T14:14:17;33.00;74.00
27900;DHT22;15243;50.726;7.080;2022-07-24T14:16:44;33.20;74.80
27900;DHT22;15243;50.726;7.080;2022-07-24T14:19:11;33.00;73.00
27900;DHT22;15243;50.726;7.080;2022-07-24T14:21:38;32.90;74.80
27900;DHT22;15243;50.726;7.080;2022-07-24T14:24:06;33.00;72.30
27900;DHT22;15243;50.726;7.080;2022-07-24T14:26:42;32.40;74.10
27900;DHT22;15243;50.726;7.080;2022-07-24T14:29:09;32.20;70.90
27900;DHT22;15243;50.726;7.080;2022-07-24T14:31:36;32.30;73.00
27900;DHT22;15243;50.726;7.080;2022-07-24T14:34:04;32.60;73.70
27900;DHT22;15243;50.726;7.080;2022-07-24T14:36:31;32.80;72.90
27900;DHT22;15243;50.726;7.080;2022-07-24T14:38:58;32.90;72.60
27900;DHT22;15243;50.726;7.080;2022-07-24T14:41:25;33.20;73.90
27900;DHT22;15243;50.726;7.080;2022-07-24T14:43:52;33.00;68.40
27900;DHT22;15243;50.726;7.080;2022-07-24T14:46:19;33.10;71.00
27900;DHT22;15243;50.726;7.080;2022-07-24T14:48:46;33.10;68.10
27900;DHT22;15243;50.726;7.080;2022-07-24T14:51:13;33.20;72.10
27900;DHT22;15243;50.726;7.080;2022-07-24T14:53:40;33.40;71.70
27900;DHT22;15243;50.726;7.080;2022-07-24T14:56:07;33.60;70.80
27900;DHT22;15243;50.726;7.080;2022-07-24T14:58:34;33.60;70.30
27900;DHT22;15243;50.726;7.080;2022-07-24T15:01:02;33.80;68.70
27900;DHT22;15243;50.726;7.080;2022-07-24T15:03:29;34.10;72.00
27900;DHT22;15243;50.726;7.080;2022-07-24T15:05:56;34.30;68.60
27900;DHT22;15243;50.726;7.080;2022-07-24T15:08:23;34.20;70.50
27900;DHT22;15243;50.726;7.080;2022-07-24T15:10:50;34.30;69.70
27900;DHT22;15243;50.726;7.080;2022-07-24T15:13:17;34.70;68.90
27900;DHT22;15243;50.726;7.080;2022-07-24T15:15:44;34.90;68.90
27900;DHT22;15243;50.726;7.080;2022-07-24T15:18:11;35.70;70.20
27900;DHT22;15243;50.726;7.080;2022-07-24T15:20:38;36.40;66.00
27900;DHT22;15243;50.726;7.080;2022-07-24T15:23:05;36.40;65.20
27900;DHT22;15243;50.726;7.080;2022-07-24T15:25:33;36.90;66.90
27900;DHT22;15243;50.726;7.080;2022-07-24T15:28:00;35.90;64.60
27900;DHT22;15243;50.726;7.080;2022-07-24T15:30:30;35.20;70.70
27900;DHT22;15243;50.726;7.080;2022-07-24T15:32:58;35.40;65.60
27900;DHT22;15243;50.726;7.080;2022-07-24T15:35:29;34.30;63.30
27900;DHT22;15243;50.726;7.080;2022-07-24T15:37:56;34.30;65.30
27900;DHT22;15243;50.726;7.080;2022-07-24T15:40:24;34.30;65.20
27900;DHT22;15243;50.726;7.080;2022-07-24T15:42:54;34.30;67.50
27900;DHT22;15243;50.726;7.080;2022-07-24T15:45:21;33.80;67.50
27900;DHT22;15243;50.726;7.080;2022-07-24T15:47:49;33.50;65.80
27900;DHT22;15243;50.726;7.080;2022-07-24T15:50:17;33.50;67.50
27900;DHT22;15243;50.726;7.080;2022-07-24T15:52:44;33.60;67.50
27900;DHT22;15243;50.726;7.080;2022-07-24T15:55:11;33.70;68.40
27900;DHT22;15243;50.726;7.080;2022-07-24T15:57:46;33.70;66.90
27900;DHT22;15243;50.726;7.080;2022-07-24T16:00:13;33.70;70.20
27900;DHT22;15243;50.726;7.080;2022-07-24T16:02:40;33.50;66.00
27900;DHT22;15243;50.726;7.080;2022-07-24T16:05:08;33.50;68.30
27900;DHT22;15243;50.726;7.080;2022-07-24T16:07:35;33.40;66.60